Time;durP1;ratioP1;P1;durP2;ratioP2;P2;SDS_P1;SDS_P2;PMS_P1;PMS_P2;Temp;Humidity;BMP_temperature;BMP_pressure;BME280_temperature;BME280_humidity;BME280_pressure;Samples;Min_cycle;Max_cycle;Signal;HPM_P1;HPM_P2
2023/07/10 00:01:24;;;;;;;10.85;5.97;;;23.20;83.40;;;;;;5092341;28;20024;-75
2023/07/10 00:03:49;;;;;;;11.57;5.65;;;23.20;83.00;;;;;;5093221;28;20032;-75
2023/07/10 00:06:16;;;;;;;10.55;5.55;;;23.10;82.70;;;;;;5093348;28;20032;-75
2023/07/10 00:08:42;;;;;;;9.75;5.93;;;23.10;82.60;;;;;;5092243;28;20015;-76
2023/07/10 00:11:18;;;;;;;13.18;6.45;;;23.10;82.60;;;;;;5093180;28;20029;-74
2023/07/10 00:13:45;;;;;;;13.85;7.53;;;23.10;82.50;;;;;;5093260;28;20029;-76
2023/07/10 00:16:18;;;;;;;12.02;6.20;;;23.10;82.70;;;;;;5075381;28;20044;-75
2023/07/10 00:18:44;;;;;;;14.20;6.15;;;23.20;82.40;;;;;;5092192;28;20025;-75
2023/07/10 00:21:10;;;;;;;11.98;5.70;;;23.20;82.20;;;;;;5075706;28;20503;-75
2023/07/10 00:23:36;;;;;;;11.85;5.88;;;23.10;82.20;;;;;;5092151;28;20032;-75
2023/07/10 00:26:08;;;;;;;10.32;5.85;;;23.10;82.50;;;;;;5093028;28;20020;-75
2023/07/10 00:28:34;;;;;;;;;;;23.20;82.80;;;;;;5092550;28;20021;-75
2023/07/10 00:31:00;;;;;;;11.35;5.45;;;23.10;82.70;;;;;;5093012;28;19931;-75
2023/07/10 00:33:26;;;;;;;11.18;6.18;;;23.10;82.90;;;;;;5091957;28;20193;-75
2023/07/10 00:35:52;;;;;;;12.85;6.03;;;23.10;82.90;;;;;;5091923;28;20086;-75
2023/07/10 00:38:17;;;;;;;11.25;6.30;;;23.00;82.90;;;;;;5091955;28;20084;-75
2023/07/10 00:40:46;;;;;;;13.15;5.88;;;23.00;82.70;;;;;;5091972;28;20078;-75
2023/07/10 00:43:34;;;;;;;12.35;6.50;;;23.00;82.70;;;;;;5091862;28;20031;-75
2023/07/10 00:46:24;;;;;;;12.15;6.28;;;23.00;82.80;;;;;;5092902;28;20025;-74
2023/07/10 00:48:56;;;;;;;14.75;6.63;;;23.00;82.90;;;;;;5091318;28;20032;-75
2023/07/10 00:51:38;;;;;;;12.27;6.63;;;23.00;82.90;;;;;;5093044;28;20041;-75
2023/07/10 00:54:04;;;;;;;12.32;6.78;;;22.90;82.80;;;;;;5092850;28;20028;-75
2023/07/10 00:56:38;;;;;;;13.70;6.75;;;22.90;83.00;;;;;;5091897;28;20088;-75
2023/07/10 00:59:41;;;;;;;13.20;7.15;;;22.90;83.00;;;;;;5091784;28;20036;-75
2023/07/10 01:02:12;;;;;;;13.85;6.97;;;22.90;83.00;;;;;;5030835;28;20057;-75
2023/07/10 01:04:40;;;;;;;12.70;7.10;;;22.90;83.30;;;;;;5078943;28;20456;-74
2023/07/10 01:07:08;;;;;;;14.43;6.85;;;22.80;83.00;;;;;;5093796;28;20035;-75
2023/07/10 01:09:34;;;;;;;12.75;6.82;;;22.80;83.40;;;;;;5095358;28;20021;-76
2023/07/10 01:12:03;;;;;;;13.63;7.60;;;22.80;83.80;;;;;;5096261;28;20039;-75
2023/07/10 01:14:34;;;;;;;10.60;7.00;;;22.70;83.70;;;;;;5095231;28;20048;-75
2023/07/10 01:17:01;;;;;;;9.80;7.03;;;22.70;84.00;;;;;;5096242;28;20025;-75
2023/07/10 01:19:27;;;;;;;12.10;7.15;;;22.70;84.90;;;;;;5078372;28;20088;-75
2023/07/10 01:21:53;;;;;;;11.98;7.13;;;22.60;84.10;;;;;;5095123;28;20036;-75
2023/07/10 01:24:19;;;;;;;14.43;8.07;;;22.50;84.30;;;;;;5095174;28;20080;-75
2023/07/10 01:26:45;;;;;;;18.92;8.30;;;22.50;84.60;;;;;;5078326;28;20024;-75
2023/07/10 01:29:20;;;;;;;13.10;7.90;;;22.40;84.80;;;;;;5094922;28;20487;-75
2023/07/10 01:31:48;;;;;;;11.73;7.53;;;22.50;84.80;;;;;;5094960;28;20063;-75
2023/07/10 01:34:14;;;;;;;14.13;8.40;;;22.50;84.90;;;;;;5094900;28;20099;-75
2023/07/10 01:36:42;;;;;;;14.82;8.20;;;22.50;84.80;;;;;;5094918;28;20051;-75
2023/07/10 01:39:14;;;;;;;14.90;8.60;;;22.50;84.50;;;;;;5094547;28;20044;-75
2023/07/10 01:41:44;;;;;;;13.98;8.70;;;22.50;84.50;;;;;;5095780;28;20051;-75
2023/07/10 01:44:24;;;;;;;14.75;8.00;;;22.50;84.20;;;;;;5095697;28;20028;-75
2023/07/10 01:46:51;;;;;;;14.98;8.57;;;22.50;84.20;;;;;;5094711;28;20096;-75
2023/07/10 01:49:19;;;;;;;15.77;8.57;;;22.50;84.20;;;;;;5095589;28;20054;-75
2023/07/10 01:51:45;;;;;;;16.60;9.40;;;22.40;84.20;;;;;;5094607;28;20120;-75
2023/07/10 01:54:15;;;;;;;12.48;8.02;;;22.40;84.30;;;;;;5094523;28;20016;-74
2023/07/10 01:56:42;;;;;;;15.15;8.93;;;22.40;84.30;;;;;;5095514;28;20020;-75
2023/07/10 01:59:07;;;;;;;12.98;8.25;;;22.40;84.30;;;;;;5077607;28;20028;-75
2023/07/10 02:01:33;;;;;;;13.88;8.32;;;22.40;84.20;;;;;;5094396;28;20029;-75
2023/07/10 02:03:59;;;;;;;11.73;8.50;;;22.40;84.00;;;;;;5095257;28;20029;-74
2023/07/10 02:06:25;;;;;;;15.48;8.73;;;22.40;83.80;;;;;;5094226;28;20020;-75
2023/07/10 02:08:51;;;;;;;16.92;8.70;;;22.30;83.90;;;;;;5094152;28;20020;-75
2023/07/10 02:11:17;;;;;;;16.45;9.40;;;22.30;83.90;;;;;;5077452;28;20040;-75
2023/07/10 02:13:42;;;;;;;13.18;8.15;;;22.30;83.90;;;;;;5095115;28;20025;-74
2023/07/10 02:16:11;;;;;;;16.33;8.35;;;22.30;83.90;;;;;;5077316;28;20099;-75
2023/07/10 02:18:36;;;;;;;16.40;8.32;;;22.30;83.70;;;;;;5093137;28;20035;-75
2023/07/10 02:21:03;;;;;;;13.50;7.72;;;22.20;83.70;;;;;;5077406;28;20029;-75
2023/07/10 02:23:29;;;;;;;14.27;7.68;;;22.20;83.90;;;;;;5093971;28;20079;-76
2023/07/10 02:25:55;;;;;;;12.55;7.63;;;22.10;83.90;;;;;;5093959;28;20025;-75
2023/07/10 02:28:21;;;;;;;13.93;7.65;;;22.10;83.80;;;;;;5093968;28;20028;-75
2023/07/10 02:30:47;;;;;;;12.68;7.32;;;22.10;83.80;;;;;;5094108;28;20060;-74
2023/07/10 02:33:12;;;;;;;13.70;8.05;;;22.10;83.90;;;;;;5093682;28;20031;-74
2023/07/10 02:35:38;;;;;;;14.25;7.55;;;22.10;83.60;;;;;;5076855;28;20024;-75
2023/07/10 02:38:04;;;;;;;10.48;6.72;;;22.00;83.10;;;;;;5077029;28;20040;-75
2023/07/10 02:40:29;;;;;;;13.40;7.57;;;21.80;83.00;;;;;;5094391;28;20057;-75
2023/07/10 02:42:55;;;;;;;14.10;7.88;;;21.50;83.60;;;;;;5093456;28;20028;-74
2023/07/10 02:45:21;;;;;;;12.38;7.88;;;21.50;84.10;;;;;;5076793;28;20066;-74
2023/07/10 02:47:46;;;;;;;13.15;7.53;;;21.50;84.60;;;;;;5093583;28;20032;-75
2023/07/10 02:50:12;;;;;;;11.10;6.85;;;21.50;84.90;;;;;;5076722;28;20028;-74
2023/07/10 02:52:38;;;;;;;10.02;6.70;;;21.40;85.30;;;;;;5093415;28;20032;-74
2023/07/10 02:55:04;;;;;;;11.63;6.95;;;21.40;85.40;;;;;;5094303;28;20028;-74
2023/07/10 02:57:29;;;;;;;9.95;7.03;;;21.40;85.30;;;;;;5093241;28;20108;-74
2023/07/10 02:59:55;;;;;;;11.10;7.10;;;21.40;85.40;;;;;;5076506;28;20035;-75
2023/07/10 03:02:20;;;;;;;13.13;7.57;;;21.40;85.60;;;;;;5093156;28;20029;-74
2023/07/10 03:04:46;;;;;;;11.05;7.20;;;21.40;85.80;;;;;;5094082;28;20074;-74
2023/07/10 03:07:12;;;;;;;11.15;7.40;;;21.20;86.30;;;;;;5076364;28;20111;-74
2023/07/10 03:09:37;;;;;;;13.57;7.50;;;21.10;86.70;;;;;;5093114;28;20036;-74
2023/07/10 03:12:03;;;;;;;12.15;7.70;;;21.10;86.80;;;;;;5093060;28;20025;-75
2023/07/10 03:14:29;;;;;;;11.02;7.22;;;21.10;87.10;;;;;;5092917;28;20096;-74
2023/07/10 03:16:54;;;;;;;12.05;7.07;;;21.20;87.10;;;;;;5092880;28;20025;-74
2023/07/10 03:19:20;;;;;;;14.80;7.18;;;21.20;86.50;;;;;;5092891;28;20071;-74
2023/07/10 03:21:46;;;;;;;12.95;7.55;;;21.20;86.70;;;;;;5093047;28;20032;-75
2023/07/10 03:24:11;;;;;;;11.13;6.38;;;21.20;86.60;;;;;;5092685;28;20031;-74
2023/07/10 03:26:37;;;;;;;11.38;7.40;;;21.10;86.80;;;;;;5092676;28;20032;-75
2023/07/10 03:29:13;;;;;;;11.23;7.10;;;21.20;86.90;;;;;;5075914;28;20032;-74
2023/07/10 03:31:39;;;;;;;11.23;6.68;;;21.30;86.80;;;;;;5093802;28;20052;-74
2023/07/10 03:34:05;;;;;;;14.02;7.22;;;21.30;86.60;;;;;;5092506;28;20027;-75
2023/07/10 03:36:31;;;;;;;10.98;6.78;;;21.30;86.30;;;;;;5093779;28;20483;-74
2023/07/10 03:38:57;;;;;;;12.75;7.60;;;21.30;85.60;;;;;;5093374;28;20117;-74
2023/07/10 03:41:23;;;;;;;11.45;7.63;;;21.30;85.40;;;;;;5093673;28;20035;-75
2023/07/10 03:43:49;;;;;;;13.65;7.40;;;21.20;85.50;;;;;;5092486;28;20020;-74
2023/07/10 03:46:18;;;;;;;14.35;7.00;;;21.20;85.60;;;;;;5092591;28;20029;-74
2023/07/10 03:48:44;;;;;;;12.68;7.40;;;21.10;85.60;;;;;;5075688;28;20029;-74
2023/07/10 03:51:10;;;;;;;14.30;7.32;;;21.00;85.70;;;;;;5075721;28;20025;-75
2023/07/10 03:53:36;;;;;;;11.50;7.22;;;21.10;86.30;;;;;;5092481;28;20048;-75
2023/07/10 03:56:02;;;;;;;10.50;6.95;;;21.10;86.20;;;;;;5092496;28;20028;-76
2023/07/10 03:58:30;;;;;;;10.25;5.53;;;21.20;86.20;;;;;;5075625;28;20028;-75
2023/07/10 04:00:58;;;;;;;10.75;5.97;;;21.10;86.10;;;;;;5093171;28;20028;-76
2023/07/10 04:03:25;;;;;;;14.40;5.88;;;21.20;86.20;;;;;;5093267;28;20088;-76
2023/07/10 04:05:58;;;;;;;9.82;6.28;;;21.20;85.70;;;;;;5092189;28;20028;-76
2023/07/10 04:08:27;;;;;;;;;;;21.10;85.30;;;;;;5093870;28;20021;-74
2023/07/10 04:10:55;;;;;;;11.25;5.88;;;21.10;85.20;;;;;;5092174;28;19926;-75
2023/07/10 04:13:21;;;;;;;10.10;5.88;;;21.00;85.70;;;;;;5093196;28;20032;-76
2023/07/10 04:16:10;;;;;;;11.80;6.15;;;21.00;85.50;;;;;;5093171;28;20027;-76
2023/07/10 04:18:38;;;;;;;10.55;6.30;;;20.90;85.30;;;;;;5092101;28;20024;-75
2023/07/10 04:21:08;;;;;;;10.27;5.78;;;20.80;85.50;;;;;;5093125;28;20054;-76
2023/07/10 04:23:34;;;;;;;12.80;5.75;;;20.70;85.80;;;;;;5093009;28;20106;-76
2023/07/10 04:26:00;;;;;;;12.18;5.95;;;20.60;86.00;;;;;;5075374;28;20024;-75
2023/07/10 04:28:25;;;;;;;12.95;5.88;;;20.60;86.20;;;;;;5075438;28;20092;-76
2023/07/10 04:30:52;;;;;;;9.00;5.38;;;20.60;86.00;;;;;;5092085;28;20480;-76
2023/07/10 04:33:19;;;;;;;10.85;5.82;;;20.60;86.10;;;;;;5075339;28;20040;-76
2023/07/10 04:35:56;;;;;;;11.90;6.05;;;20.60;86.10;;;;;;5092096;28;20078;-76
2023/07/10 04:38:24;;;;;;;9.25;5.20;;;20.60;85.90;;;;;;5092751;28;20024;-77
2023/07/10 04:40:52;;;;;;;9.88;5.38;;;20.60;85.90;;;;;;5092141;28;20099;-76
2023/07/10 04:43:17;;;;;;;9.82;5.32;;;20.60;85.80;;;;;;5095825;28;20038;-76
2023/07/10 04:45:43;;;;;;;10.43;5.80;;;20.60;85.60;;;;;;5095849;28;20040;-76
2023/07/10 04:48:08;;;;;;;9.38;5.20;;;20.60;85.50;;;;;;5095753;28;20064;-76
2023/07/10 04:50:34;;;;;;;10.15;5.53;;;20.60;85.40;;;;;;5095710;28;20059;-77
2023/07/10 04:53:00;;;;;;;12.38;5.45;;;20.60;85.50;;;;;;5095831;28;20115;-75
2023/07/10 04:55:25;;;;;;;9.82;6.18;;;20.60;85.60;;;;;;5095685;28;20034;-75
2023/07/10 04:57:51;;;;;;;8.63;5.70;;;20.60;85.50;;;;;;5078992;28;20025;-76
2023/07/10 05:00:18;;;;;;;11.68;6.10;;;20.60;85.60;;;;;;5095383;28;20036;-76
2023/07/10 05:02:43;;;;;;;12.32;6.00;;;20.60;85.70;;;;;;5095403;28;20048;-75
2023/07/10 05:05:09;;;;;;;9.80;5.70;;;20.60;85.80;;;;;;5095474;28;20039;-74
2023/07/10 05:07:35;;;;;;;12.93;7.22;;;20.60;85.80;;;;;;5078727;28;20024;-74
2023/07/10 05:10:00;;;;;;;10.60;5.78;;;20.60;85.90;;;;;;5078621;28;20032;-74
2023/07/10 05:12:26;;;;;;;10.30;5.50;;;20.60;86.80;;;;;;5095476;28;20093;-74
2023/07/10 05:14:52;;;;;;;11.57;5.68;;;20.70;86.10;;;;;;5078499;28;20032;-74
2023/07/10 05:17:18;;;;;;;8.95;6.13;;;20.70;86.10;;;;;;5095400;28;20060;-75
2023/07/10 05:19:43;;;;;;;8.65;5.22;;;20.80;85.90;;;;;;5078408;28;20036;-75
2023/07/10 05:22:09;;;;;;;10.13;5.68;;;20.80;85.80;;;;;;5078400;28;20021;-76
2023/07/10 05:24:35;;;;;;;11.55;6.05;;;20.80;85.70;;;;;;5078330;28;20475;-76
2023/07/10 05:27:00;;;;;;;11.90;6.40;;;20.80;85.60;;;;;;5078324;28;20040;-76
2023/07/10 05:29:26;;;;;;;8.98;5.63;;;20.80;85.60;;;;;;5094957;28;20515;-76
2023/07/10 05:31:51;;;;;;;10.45;6.18;;;20.80;85.60;;;;;;5078165;28;20032;-75
2023/07/10 05:34:22;;;;;;;12.00;6.00;;;20.80;85.70;;;;;;5094871;28;20043;-76
2023/07/10 05:36:47;;;;;;;10.68;6.45;;;20.80;85.50;;;;;;5094879;28;20100;-76
2023/07/10 05:39:13;;;;;;;10.63;6.00;;;20.90;85.60;;;;;;5077969;28;20052;-76
2023/07/10 05:41:39;;;;;;;12.05;6.65;;;20.90;85.40;;;;;;5094774;28;20109;-75
2023/07/10 05:44:06;;;;;;;10.43;6.53;;;20.90;85.20;;;;;;5077882;28;20032;-75
2023/07/10 05:46:32;;;;;;;9.23;6.00;;;20.90;85.40;;;;;;5094843;28;20086;-75
2023/07/10 05:48:58;;;;;;;10.75;5.60;;;20.90;85.60;;;;;;5095621;28;20029;-75
2023/07/10 05:51:23;;;;;;;8.52;5.65;;;20.90;85.30;;;;;;5095568;28;20027;-75
2023/07/10 05:53:49;;;;;;;8.43;4.20;;;21.00;86.40;;;;;;5076495;28;20044;-74
2023/07/10 05:56:15;;;;;;;9.07;3.80;;;21.00;85.00;;;;;;5094558;28;20037;-75
2023/07/10 05:58:40;;;;;;;6.15;3.45;;;21.00;84.60;;;;;;5077760;28;20029;-75
2023/07/10 06:01:06;;;;;;;6.63;3.42;;;21.10;84.10;;;;;;5094386;28;20039;-74
2023/07/10 06:03:33;;;;;;;8.70;3.35;;;21.10;84.00;;;;;;5094394;28;20029;-75
2023/07/10 06:06:04;;;;;;;6.50;3.60;;;21.10;83.90;;;;;;5095436;28;20040;-74
2023/07/10 06:08:30;;;;;;;9.82;3.35;;;21.10;83.50;;;;;;5095301;28;20040;-74
2023/07/10 06:10:56;;;;;;;6.80;3.00;;;21.10;83.40;;;;;;5077460;28;20035;-74
2023/07/10 06:13:22;;;;;;;8.20;3.05;;;21.10;83.80;;;;;;5094147;28;20045;-74
2023/07/10 06:15:51;;;;;;;6.72;3.55;;;21.20;83.40;;;;;;5094086;28;20059;-75
2023/07/10 06:18:17;;;;;;;7.72;3.30;;;21.20;83.10;;;;;;5094101;28;20468;-75
2023/07/10 06:20:49;;;;;;;5.07;2.92;;;21.20;83.20;;;;;;5094985;28;20029;-74
2023/07/10 06:23:14;;;;;;;6.68;3.03;;;21.30;82.80;;;;;;5093966;28;20032;-73
2023/07/10 06:25:44;;;;;;;6.47;2.80;;;21.30;82.40;;;;;;5094056;28;20089;-73
2023/07/10 06:28:10;;;;;;;6.88;3.00;;;21.30;82.00;;;;;;5094877;28;20043;-74
2023/07/10 06:30:41;;;;;;;5.32;3.13;;;21.30;82.10;;;;;;5093848;28;20025;-74
2023/07/10 06:33:07;;;;;;;7.78;2.88;;;21.30;81.40;;;;;;5094779;28;20028;-74
2023/07/10 06:35:33;;;;;;;7.35;2.80;;;21.40;81.70;;;;;;5094600;28;20033;-74
2023/07/10 06:37:58;;;;;;;4.82;2.38;;;21.30;81.10;;;;;;5093597;28;20105;-74
2023/07/10 06:40:24;;;;;;;8.10;2.65;;;21.40;80.50;;;;;;5076798;28;20082;-74
2023/07/10 06:42:50;;;;;;;6.10;2.45;;;21.40;80.20;;;;;;5093572;28;20029;-74
2023/07/10 06:45:15;;;;;;;6.93;1.95;;;21.50;80.70;;;;;;5094469;28;20025;-74
2023/07/10 06:47:44;;;;;;;4.35;2.38;;;21.50;80.20;;;;;;5093561;28;20060;-74
2023/07/10 06:50:12;;;;;;;5.05;2.20;;;21.50;79.30;;;;;;5094389;28;20017;-73
2023/07/10 06:52:39;;;;;;;7.40;2.70;;;21.50;78.90;;;;;;5094355;28;20035;-74
2023/07/10 06:55:06;;;;;;;5.35;2.03;;;21.50;78.60;;;;;;5094357;28;20032;-74
2023/07/10 06:57:32;;;;;;;6.25;1.95;;;21.60;77.80;;;;;;5093357;28;20092;-75
2023/07/10 06:59:58;;;;;;;7.90;2.35;;;21.60;78.00;;;;;;5093347;28;20028;-73
2023/07/10 07:02:24;;;;;;;4.07;1.75;;;21.60;78.10;;;;;;5093124;28;20032;-74
2023/07/10 07:04:49;;;;;;;5.15;1.90;;;21.60;77.50;;;;;;5076067;28;20492;-74
2023/07/10 07:07:15;;;;;;;5.88;1.88;;;21.70;77.80;;;;;;5093136;28;20035;-73
2023/07/10 07:09:42;;;;;;;4.88;1.50;;;21.70;77.80;;;;;;5093004;28;20024;-74
2023/07/10 07:12:09;;;;;;;5.22;1.50;;;21.80;77.50;;;;;;5076575;28;20063;-73
2023/07/10 07:14:35;;;;;;;5.22;1.48;;;21.80;76.70;;;;;;5093906;28;20024;-74
2023/07/10 07:17:01;;;;;;;6.53;2.00;;;21.80;75.60;;;;;;5076168;28;20088;-74
2023/07/10 07:19:26;;;;;;;6.10;2.03;;;21.90;76.40;;;;;;5093013;28;20035;-74
2023/07/10 07:21:52;;;;;;;4.65;2.10;;;21.90;76.70;;;;;;5076112;28;20025;-74
2023/07/10 07:24:18;;;;;;;6.60;2.33;;;22.00;75.90;;;;;;5076000;28;20028;-73
2023/07/10 07:26:43;;;;;;;5.72;2.47;;;22.00;77.40;;;;;;5075952;28;20024;-74
2023/07/10 07:29:09;;;;;;;5.90;1.92;;;22.10;76.70;;;;;;5092756;28;20108;-74
2023/07/10 07:31:37;;;;;;;5.43;2.50;;;22.10;76.50;;;;;;5076023;28;20017;-71
2023/07/10 07:34:03;;;;;;;6.25;2.40;;;22.00;75.60;;;;;;5093557;28;20103;-71
2023/07/10 07:36:32;;;;;;;7.97;2.60;;;22.00;76.10;;;;;;5092622;28;20040;-74
2023/07/10 07:38:57;;;;;;;4.43;1.95;;;22.00;76.80;;;;;;5092395;28;20059;-73
2023/07/10 07:41:23;;;;;;;3.83;2.20;;;22.10;77.40;;;;;;5092559;28;20025;-72
2023/07/10 07:43:48;;;;;;;6.15;2.00;;;22.10;75.50;;;;;;5093555;28;20461;-72
2023/07/10 07:46:14;;;;;;;4.32;1.73;;;22.10;75.80;;;;;;5092512;28;20032;-72
2023/07/10 07:48:40;;;;;;;5.63;2.00;;;22.10;76.20;;;;;;5093627;28;20092;-75
2023/07/10 07:51:07;;;;;;;6.03;1.98;;;22.20;75.50;;;;;;5092401;28;20028;-76
2023/07/10 07:53:39;;;;;;;6.03;1.60;;;22.20;74.90;;;;;;5093417;28;20055;-73
2023/07/10 07:56:05;;;;;;;7.03;1.83;;;22.30;74.80;;;;;;5092382;28;20119;-73
2023/07/10 07:58:30;;;;;;;4.07;1.60;;;22.40;74.70;;;;;;5092387;28;20025;-75
2023/07/10 08:00:56;;;;;;;4.28;2.17;;;22.40;74.60;;;;;;5093320;28;20021;-74
2023/07/10 08:03:22;;;;;;;4.72;2.03;;;22.50;74.10;;;;;;5092229;28;20111;-73
2023/07/10 08:05:48;;;;;;;5.68;1.67;;;22.60;73.50;;;;;;5075691;28;20025;-74
2023/07/10 08:08:14;;;;;;;4.30;1.70;;;22.50;72.50;;;;;;5092424;28;20025;-74
2023/07/10 08:10:43;;;;;;;6.25;2.38;;;22.60;73.20;;;;;;5093210;28;20039;-74
2023/07/10 08:13:10;;;;;;;5.63;1.75;;;22.70;73.40;;;;;;5093175;28;20025;-74
2023/07/10 08:15:36;;;;;;;4.43;1.90;;;22.70;73.70;;;;;;5092201;28;20043;-73
2023/07/10 08:18:02;;;;;;;4.13;1.73;;;22.90;73.50;;;;;;5096060;28;20023;-74
2023/07/10 08:20:29;;;;;;;7.57;2.42;;;22.90;73.50;;;;;;5096388;28;20028;-75
2023/07/10 08:22:54;;;;;;;6.25;2.47;;;22.90;73.00;;;;;;5079524;28;20021;-74
2023/07/10 08:25:20;;;;;;;7.28;2.60;;;23.00;73.10;;;;;;5097161;28;20024;-75
2023/07/10 08:27:46;;;;;;;6.53;2.38;;;23.00;73.50;;;;;;5096156;28;20080;-75
2023/07/10 08:30:13;;;;;;;5.57;2.30;;;23.10;72.80;;;;;;5096171;28;20023;-74
2023/07/10 08:32:39;;;;;;;5.55;2.30;;;23.10;72.70;;;;;;5079322;28;20028;-75
2023/07/10 08:35:06;;;;;;;5.60;2.00;;;23.00;72.30;;;;;;5095905;28;20039;-75
2023/07/10 08:37:33;;;;;;;6.13;2.63;;;22.90;72.50;;;;;;5097106;28;20017;-75
2023/07/10 08:39:58;;;;;;;5.45;2.00;;;23.00;72.50;;;;;;5096744;28;20054;-75
2023/07/10 08:42:29;;;;;;;4.85;2.03;;;23.20;73.20;;;;;;5095782;28;20033;-73
2023/07/10 08:44:55;;;;;;;4.65;2.03;;;23.30;73.40;;;;;;5097002;28;20020;-73
2023/07/10 08:47:24;;;;;;;5.25;1.65;;;23.40;71.70;;;;;;5096791;28;20027;-73
2023/07/10 08:50:12;;;;;;;5.25;2.05;;;23.40;72.00;;;;;;5096718;28;20013;-74
2023/07/10 08:52:49;;;;;;;5.72;2.17;;;23.40;71.90;;;;;;5096831;28;20086;-74
2023/07/10 08:55:27;;;;;;;4.82;1.70;;;23.40;71.10;;;;;;5096679;28;20063;-74
2023/07/10 08:58:02;;;;;;;4.43;1.80;;;23.40;72.00;;;;;;5096634;28;20056;-73
2023/07/10 09:00:35;;;;;;;4.53;1.45;;;23.40;70.70;;;;;;5096631;28;20039;-74
2023/07/10 09:03:11;;;;;;;5.70;1.90;;;23.50;70.00;;;;;;5096471;28;20027;-73
2023/07/10 09:05:39;;;;;;;7.50;2.05;;;23.60;70.90;;;;;;5096499;28;20019;-73
2023/07/10 09:08:10;;;;;;;7.80;1.70;;;23.60;70.80;;;;;;5095329;28;20020;-73
2023/07/10 09:10:43;;;;;;;4.65;2.10;;;23.60;69.90;;;;;;5096264;28;20016;-73
2023/07/10 09:13:18;;;;;;;7.20;2.03;;;23.70;68.80;;;;;;5096439;28;20024;-74
2023/07/10 09:15:55;;;;;;;7.57;2.30;;;23.60;69.50;;;;;;5095376;28;20024;-74
2023/07/10 09:18:28;;;;;;;8.20;2.30;;;23.70;69.60;;;;;;5096233;28;20035;-74
2023/07/10 09:20:58;;;;;;;9.65;2.30;;;23.80;69.80;;;;;;5096373;28;20036;-73
2023/07/10 09:23:33;;;;;;;4.88;1.92;;;23.90;69.60;;;;;;5095051;28;20029;-73
2023/07/10 09:26:20;;;;;;;5.75;1.90;;;23.90;69.30;;;;;;5096082;28;20031;-73
2023/07/10 09:29:16;;;;;;;7.10;2.00;;;23.80;67.50;;;;;;5094777;28;20020;-74
2023/07/10 09:32:00;;;;;;;4.95;1.50;;;23.70;66.90;;;;;;5095061;28;20088;-74
2023/07/10 09:34:31;;;;;;;6.93;1.88;;;23.70;66.80;;;;;;5095748;28;20028;-73
2023/07/10 09:36:58;;;;;;;5.30;2.10;;;23.70;68.50;;;;;;5094781;28;20020;-73
2023/07/10 09:39:28;;;;;;;4.75;1.60;;;23.90;69.00;;;;;;5095534;28;20075;-74
2023/07/10 09:42:00;;;;;;;5.97;1.95;;;24.00;68.80;;;;;;5095918;28;20088;-73
2023/07/10 09:44:37;;;;;;;2.83;1.33;;;24.20;68.90;;;;;;5095750;28;20035;-74
2023/07/10 09:47:09;;;;;;;3.00;1.52;;;24.20;67.30;;;;;;5095682;28;20028;-72
2023/07/10 09:49:40;;;;;;;2.90;1.35;;;24.10;67.20;;;;;;5095714;28;20021;-72
2023/07/10 09:52:16;;;;;;;4.10;1.20;;;24.10;67.40;;;;;;5095678;28;20084;-70
2023/07/10 09:54:42;;;;;;;4.25;1.60;;;24.10;65.50;;;;;;5094545;28;20267;-73
2023/07/10 09:57:14;;;;;;;8.32;1.98;;;24.10;66.00;;;;;;5094486;28;20039;-73
2023/07/10 09:59:47;;;;;;;4.82;1.60;;;24.20;66.80;;;;;;5094533;28;20017;-72
2023/07/10 10:03:00;;;;;;;2.78;1.42;;;24.10;66.00;;;;;;5095370;28;20025;-72
2023/07/10 10:05:26;;;;;;;3.97;1.38;;;24.10;66.10;;;;;;5033712;28;20026;-73
2023/07/10 10:08:01;;;;;;;3.08;1.30;;;24.20;65.80;;;;;;5087793;28;20037;-73
2023/07/10 10:10:31;;;;;;;5.05;1.20;;;24.40;65.00;;;;;;5095315;28;20017;-74
2023/07/10 10:13:06;;;;;;;5.47;1.58;;;24.50;63.80;;;;;;5095229;28;20056;-74
2023/07/10 10:15:48;;;;;;;5.65;1.38;;;24.50;61.90;;;;;;5094157;28;20028;-73
2023/07/10 10:19:04;;;;;;;5.43;1.52;;;24.50;62.50;;;;;;5095339;28;20036;-73
2023/07/10 10:21:33;;;;;;;6.30;1.48;;;24.60;65.40;;;;;;5033367;28;20070;-73
2023/07/10 10:24:04;;;;;;;4.10;1.70;;;24.70;64.30;;;;;;5078966;28;20123;-73
2023/07/10 10:26:34;;;;;;;4.28;1.25;;;24.80;64.50;;;;;;5094967;28;20480;-74
2023/07/10 10:29:12;;;;;;;4.35;1.40;;;24.90;63.10;;;;;;5095065;28;20025;-73
2023/07/10 10:31:44;;;;;;;3.97;1.42;;;24.90;64.10;;;;;;5094120;28;20038;-74
2023/07/10 10:34:50;;;;;;;3.72;1.40;;;25.00;62.20;;;;;;5093756;28;20047;-73
2023/07/10 10:37:54;;;;;;;3.63;1.48;;;25.00;62.70;;;;;;5090572;28;20033;-74
2023/07/10 10:40:25;;;;;;;5.53;1.90;;;25.20;62.90;;;;;;5093848;28;20048;-75
2023/07/10 10:43:13;;;;;;;4.07;1.55;;;25.20;60.50;;;;;;5094666;28;20037;-74
2023/07/10 10:45:46;;;;;;;3.17;1.33;;;25.30;60.50;;;;;;5093551;28;20021;-74
2023/07/10 10:48:18;;;;;;;3.47;1.50;;;25.20;59.60;;;;;;5094514;28;20430;-74
2023/07/10 10:51:06;;;;;;;5.40;1.70;;;25.20;60.80;;;;;;5094456;28;20025;-73
2023/07/10 10:53:57;;;;;;;7.53;1.63;;;25.20;60.50;;;;;;5094567;28;20029;-74
2023/07/10 10:56:34;;;;;;;2.53;1.10;;;25.20;61.90;;;;;;5094375;28;20043;-73
2023/07/10 10:59:15;;;;;;;5.03;1.63;;;25.30;61.80;;;;;;5093310;28;20043;-74
2023/07/10 11:02:19;;;;;;;5.22;1.85;;;25.40;61.70;;;;;;5093325;28;20036;-73
2023/07/10 11:04:49;;;;;;;7.45;1.73;;;25.50;61.00;;;;;;5091325;28;20044;-73
2023/07/10 11:07:20;;;;;;;5.43;1.88;;;25.70;61.20;;;;;;5094214;28;20080;-73
2023/07/10 11:09:53;;;;;;;5.40;1.70;;;25.70;57.40;;;;;;5094137;28;20025;-74
2023/07/10 11:12:26;;;;;;;3.22;1.30;;;25.70;58.30;;;;;;5092985;28;20111;-73
2023/07/10 11:14:57;;;;;;;3.58;1.20;;;25.70;61.80;;;;;;5093990;28;20431;-73
2023/07/10 11:17:23;;;;;;;4.70;1.55;;;25.80;61.10;;;;;;5092958;28;20027;-73
2023/07/10 11:19:50;;;;;;;3.47;1.27;;;25.90;60.70;;;;;;5092881;28;20040;-73
2023/07/10 11:22:29;;;;;;;3.53;1.30;;;26.00;59.10;;;;;;5092749;28;20038;-73
2023/07/10 11:24:55;;;;;;;4.75;1.42;;;26.10;60.00;;;;;;5093838;28;20027;-74
2023/07/10 11:27:27;;;;;;;2.83;1.08;;;26.20;59.70;;;;;;5093786;28;20020;-73
2023/07/10 11:29:56;;;;;;;6.07;1.35;;;26.30;60.30;;;;;;5093931;28;20017;-73
2023/07/10 11:32:25;;;;;;;5.50;1.38;;;26.40;59.60;;;;;;5093693;28;20016;-73
2023/07/10 11:35:21;;;;;;;5.38;1.70;;;26.60;58.90;;;;;;5093600;28;20028;-73
2023/07/10 11:37:49;;;;;;;4.18;1.40;;;26.60;55.20;;;;;;5075810;28;20033;-73
2023/07/10 11:40:27;;;;;;;3.55;1.27;;;26.40;56.60;;;;;;5092480;28;20083;-74
2023/07/10 11:43:13;;;;;;;5.65;1.60;;;26.40;56.30;;;;;;5093496;28;20028;-74
2023/07/10 11:45:50;;;;;;;3.90;1.50;;;26.30;57.20;;;;;;5062474;28;20138;-74
2023/07/10 11:48:38;;;;;;;2.92;1.50;;;26.30;57.80;;;;;;5093599;28;20040;-73
2023/07/10 11:51:28;;;;;;;4.88;1.50;;;26.30;58.30;;;;;;5093490;28;20036;-74
2023/07/10 11:54:32;;;;;;;7.32;1.35;;;26.30;57.20;;;;;;5092429;28;20023;-74
2023/07/10 11:57:06;;;;;;;3.42;1.27;;;26.20;57.40;;;;;;5061563;28;20040;-74
2023/07/10 11:59:34;;;;;;;5.43;1.55;;;26.20;59.90;;;;;;5092422;28;20024;-74
2023/07/10 12:02:00;;;;;;;4.40;1.58;;;26.30;60.50;;;;;;5092304;28;20028;-74
2023/07/10 12:04:26;;;;;;;4.30;1.70;;;26.40;59.70;;;;;;5093259;28;20028;-73
2023/07/10 12:06:52;;;;;;;3.05;1.52;;;26.50;59.00;;;;;;5093273;28;20025;-74
2023/07/10 12:09:18;;;;;;;5.07;1.70;;;26.60;58.40;;;;;;5093299;28;20025;-74
2023/07/10 12:11:45;;;;;;;7.53;1.67;;;26.70;58.60;;;;;;5093255;28;20050;-73
2023/07/10 12:14:12;;;;;;;5.38;1.60;;;26.80;59.20;;;;;;5092330;28;20020;-75
2023/07/10 12:16:59;;;;;;;6.10;1.77;;;26.90;59.20;;;;;;5093214;28;20046;-75
2023/07/10 12:19:34;;;;;;;4.97;1.50;;;26.90;58.70;;;;;;5092272;28;20482;-74
2023/07/10 12:22:13;;;;;;;6.63;1.80;;;26.80;58.60;;;;;;5092229;28;20029;-73
2023/07/10 12:24:54;;;;;;;4.95;1.50;;;26.80;58.60;;;;;;5093320;28;20028;-75
2023/07/10 12:27:20;;;;;;;4.68;1.50;;;26.80;58.30;;;;;;5093130;28;20017;-74
2023/07/10 12:29:51;;;;;;;4.25;1.38;;;26.60;57.50;;;;;;5093089;28;20020;-74
2023/07/10 12:32:16;;;;;;;5.38;1.60;;;26.50;58.00;;;;;;5093067;28;20075;-74
2023/07/10 12:34:42;;;;;;;23.23;2.70;;;26.50;58.60;;;;;;5092941;28;20043;-73
2023/07/10 12:37:10;;;;;;;4.43;1.30;;;26.60;62.20;;;;;;5093125;28;20029;-73
2023/07/10 12:39:37;;;;;;;5.63;2.05;;;26.60;57.20;;;;;;5092819;28;20051;-73
2023/07/10 12:42:03;;;;;;;15.48;2.42;;;26.80;59.00;;;;;;5092958;28;20080;-73
2023/07/10 12:44:30;;;;;;;13.93;2.00;;;27.00;57.60;;;;;;5075119;28;20028;-73
2023/07/10 12:47:08;;;;;;;4.53;1.67;;;27.10;57.30;;;;;;5092908;28;20017;-73
2023/07/10 12:49:35;;;;;;;5.63;1.80;;;27.00;56.00;;;;;;5092928;28;20021;-73
2023/07/10 12:52:05;;;;;;;7.68;2.00;;;26.80;57.00;;;;;;5092877;28;20027;-73
2023/07/10 12:54:43;;;;;;;6.25;2.10;;;26.80;58.20;;;;;;5092982;28;20013;-73
2023/07/10 12:57:29;;;;;;;4.10;1.30;;;26.80;57.90;;;;;;5092753;28;20025;-73